sensor_id;sensor_type;location;lat;lon;timestamp;P1;durP1;ratioP1;P2;durP2;ratioP2
4909;SDS011;2470;49.868;8.660;2022-12-22T00:01:59;5.63;;;2.10;;
4909;SDS011;2470;49.868;8.660;2022-12-22T00:04:45;2.53;;;1.83;;
4909;SDS011;2470;49.868;8.660;2022-12-22T00:07:31;3.63;;;2.20;;
4909;SDS011;2470;49.868;8.660;2022-12-22T00:10:16;2.03;;;1.83;;
4909;SDS011;2470;49.868;8.660;2022-12-22T00:13:00;2.13;;;1.70;;
4909;SDS011;2470;49.868;8.660;2022-12-22T00:15:45;2.13;;;1.93;;
4909;SDS011;2470;49.868;8.660;2022-12-22T00:18:29;1.53;;;1.40;;
4909;SDS011;2470;49.868;8.660;2022-12-22T00:21:13;2.23;;;1.50;;
4909;SDS011;2470;49.868;8.660;2022-12-22T00:23:58;2.43;;;2.00;;
4909;SDS011;2470;49.868;8.660;2022-12-22T00:26:43;7.00;;;2.43;;
4909;SDS011;2470;49.868;8.660;2022-12-22T00:29:30;2.67;;;2.03;;
4909;SDS011;2470;49.868;8.660;2022-12-22T00:32:26;6.23;;;2.20;;
4909;SDS011;2470;49.868;8.660;2022-12-22T00:35:19;2.20;;;1.33;;
4909;SDS011;2470;49.868;8.660;2022-12-22T00:38:11;2.20;;;1.97;;
4909;SDS011;2470;49.868;8.660;2022-12-22T00:40:59;2.80;;;2.27;;
4909;SDS011;2470;49.868;8.660;2022-12-22T00:43:43;2.40;;;1.90;;
4909;SDS011;2470;49.868;8.660;2022-12-22T00:46:27;2.40;;;1.60;;
4909;SDS011;2470;49.868;8.660;2022-12-22T00:49:11;11.90;;;2.17;;
4909;SDS011;2470;49.868;8.660;2022-12-22T00:51:56;2.00;;;1.80;;
4909;SDS011;2470;49.868;8.660;2022-12-22T00:54:40;4.13;;;2.60;;
4909;SDS011;2470;49.868;8.660;2022-12-22T00:57:24;3.90;;;2.03;;
4909;SDS011;2470;49.868;8.660;2022-12-22T01:00:13;4.13;;;2.00;;
4909;SDS011;2470;49.868;8.660;2022-12-22T01:02:59;2.47;;;1.90;;
4909;SDS011;2470;49.868;8.660;2022-12-22T01:05:43;3.27;;;1.80;;
4909;SDS011;2470;49.868;8.660;2022-12-22T01:08:27;2.47;;;2.27;;
4909;SDS011;2470;49.868;8.660;2022-12-22T01:11:11;3.20;;;2.90;;
4909;SDS011;2470;49.868;8.660;2022-12-22T01:13:55;3.47;;;2.00;;
4909;SDS011;2470;49.868;8.660;2022-12-22T01:16:40;6.37;;;2.73;;
4909;SDS011;2470;49.868;8.660;2022-12-22T01:19:24;4.13;;;1.70;;
4909;SDS011;2470;49.868;8.660;2022-12-22T01:22:09;3.00;;;2.27;;
4909;SDS011;2470;49.868;8.660;2022-12-22T01:24:55;3.80;;;2.10;;
4909;SDS011;2470;49.868;8.660;2022-12-22T01:27:39;1.93;;;1.73;;
4909;SDS011;2470;49.868;8.660;2022-12-22T01:30:23;14.33;;;2.63;;
4909;SDS011;2470;49.868;8.660;2022-12-22T01:33:10;3.13;;;2.20;;
4909;SDS011;2470;49.868;8.660;2022-12-22T01:35:55;2.60;;;2.33;;
4909;SDS011;2470;49.868;8.660;2022-12-22T01:38:39;3.27;;;1.57;;
4909;SDS011;2470;49.868;8.660;2022-12-22T01:41:23;6.83;;;3.23;;
4909;SDS011;2470;49.868;8.660;2022-12-22T01:44:12;4.00;;;2.30;;
4909;SDS011;2470;49.868;8.660;2022-12-22T01:47:17;2.37;;;2.07;;
4909;SDS011;2470;49.868;8.660;2022-12-22T01:50:08;2.83;;;2.63;;
4909;SDS011;2470;49.868;8.660;2022-12-22T01:52:52;4.03;;;2.20;;
4909;SDS011;2470;49.868;8.660;2022-12-22T01:55:36;2.20;;;1.97;;
4909;SDS011;2470;49.868;8.660;2022-12-22T01:58:23;3.63;;;2.47;;
4909;SDS011;2470;49.868;8.660;2022-12-22T02:01:11;3.27;;;2.80;;
4909;SDS011;2470;49.868;8.660;2022-12-22T02:03:56;2.60;;;1.90;;
4909;SDS011;2470;49.868;8.660;2022-12-22T02:06:40;4.27;;;2.63;;
4909;SDS011;2470;49.868;8.660;2022-12-22T02:12:53;2.00;;;1.90;;
4909;SDS011;2470;49.868;8.660;2022-12-22T02:16:03;2.60;;;2.10;;
4909;SDS011;2470;49.868;8.660;2022-12-22T02:19:12;2.50;;;2.30;;
4909;SDS011;2470;49.868;8.660;2022-12-22T02:22:31;6.13;;;3.10;;
4909;SDS011;2470;49.868;8.660;2022-12-22T02:25:27;6.23;;;2.33;;
4909;SDS011;2470;49.868;8.660;2022-12-22T02:28:18;2.90;;;1.70;;
4909;SDS011;2470;49.868;8.660;2022-12-22T02:31:05;4.13;;;2.90;;
4909;SDS011;2470;49.868;8.660;2022-12-22T02:33:49;2.60;;;2.30;;
4909;SDS011;2470;49.868;8.660;2022-12-22T02:39:49;2.40;;;2.10;;
4909;SDS011;2470;49.868;8.660;2022-12-22T02:42:49;2.87;;;2.57;;
4909;SDS011;2470;49.868;8.660;2022-12-22T02:45:47;2.53;;;2.00;;
4909;SDS011;2470;49.868;8.660;2022-12-22T02:48:44;3.60;;;2.53;;
4909;SDS011;2470;49.868;8.660;2022-12-22T02:51:35;6.77;;;3.17;;
4909;SDS011;2470;49.868;8.660;2022-12-22T02:54:23;2.53;;;2.33;;
4909;SDS011;2470;49.868;8.660;2022-12-22T02:57:08;2.83;;;2.63;;
4909;SDS011;2470;49.868;8.660;2022-12-22T02:59:53;3.60;;;2.43;;
4909;SDS011;2470;49.868;8.660;2022-12-22T03:02:37;3.50;;;2.97;;
4909;SDS011;2470;49.868;8.660;2022-12-22T03:05:21;4.30;;;2.73;;
4909;SDS011;2470;49.868;8.660;2022-12-22T03:08:05;2.57;;;2.37;;
4909;SDS011;2470;49.868;8.660;2022-12-22T03:10:49;2.70;;;2.30;;
4909;SDS011;2470;49.868;8.660;2022-12-22T03:13:33;5.90;;;2.30;;
4909;SDS011;2470;49.868;8.660;2022-12-22T03:16:17;2.47;;;2.30;;
4909;SDS011;2470;49.868;8.660;2022-12-22T03:19:01;3.53;;;2.43;;
4909;SDS011;2470;49.868;8.660;2022-12-22T03:21:45;5.10;;;2.40;;
4909;SDS011;2470;49.868;8.660;2022-12-22T03:24:29;2.50;;;2.30;;
4909;SDS011;2470;49.868;8.660;2022-12-22T03:27:13;5.40;;;2.27;;
4909;SDS011;2470;49.868;8.660;2022-12-22T03:29:39;3.03;;;2.47;;
4909;SDS011;2470;49.868;8.660;2022-12-22T03:32:04;2.60;;;2.40;;
4909;SDS011;2470;49.868;8.660;2022-12-22T03:34:30;4.00;;;2.77;;
4909;SDS011;2470;49.868;8.660;2022-12-22T03:36:55;2.40;;;1.90;;
4909;SDS011;2470;49.868;8.660;2022-12-22T03:39:21;4.20;;;2.50;;
4909;SDS011;2470;49.868;8.660;2022-12-22T03:41:46;2.23;;;2.07;;
4909;SDS011;2470;49.868;8.660;2022-12-22T03:44:30;2.90;;;1.83;;
4909;SDS011;2470;49.868;8.660;2022-12-22T03:47:14;2.50;;;2.30;;
4909;SDS011;2470;49.868;8.660;2022-12-22T03:49:40;14.20;;;2.50;;
4909;SDS011;2470;49.868;8.660;2022-12-22T03:52:05;3.37;;;2.20;;
4909;SDS011;2470;49.868;8.660;2022-12-22T03:54:31;9.23;;;4.27;;
4909;SDS011;2470;49.868;8.660;2022-12-22T03:56:56;3.13;;;1.80;;
4909;SDS011;2470;49.868;8.660;2022-12-22T03:59:22;2.30;;;1.90;;
4909;SDS011;2470;49.868;8.660;2022-12-22T04:01:48;4.13;;;2.40;;
4909;SDS011;2470;49.868;8.660;2022-12-22T04:04:17;1.60;;;1.50;;
4909;SDS011;2470;49.868;8.660;2022-12-22T04:06:44;3.90;;;2.27;;
4909;SDS011;2470;49.868;8.660;2022-12-22T04:09:10;2.47;;;1.83;;
4909;SDS011;2470;49.868;8.660;2022-12-22T04:11:36;1.97;;;1.77;;
4909;SDS011;2470;49.868;8.660;2022-12-22T04:14:20;1.43;;;1.33;;
4909;SDS011;2470;49.868;8.660;2022-12-22T04:16:46;2.60;;;1.60;;
4909;SDS011;2470;49.868;8.660;2022-12-22T04:19:13;3.70;;;1.70;;
4909;SDS011;2470;49.868;8.660;2022-12-22T04:21:39;4.50;;;1.43;;
4909;SDS011;2470;49.868;8.660;2022-12-22T04:24:05;2.63;;;1.40;;
4909;SDS011;2470;49.868;8.660;2022-12-22T04:26:31;1.53;;;1.43;;
4909;SDS011;2470;49.868;8.660;2022-12-22T04:28:57;3.10;;;2.60;;
4909;SDS011;2470;49.868;8.660;2022-12-22T04:31:22;1.23;;;1.13;;
4909;SDS011;2470;49.868;8.660;2022-12-22T04:33:48;5.50;;;1.40;;
4909;SDS011;2470;49.868;8.660;2022-12-22T04:36:15;3.47;;;1.73;;
4909;SDS011;2470;49.868;8.660;2022-12-22T04:38:40;1.63;;;1.53;;
4909;SDS011;2470;49.868;8.660;2022-12-22T04:41:07;1.70;;;1.60;;
4909;SDS011;2470;49.868;8.660;2022-12-22T04:43:33;1.50;;;1.40;;
4909;SDS011;2470;49.868;8.660;2022-12-22T04:45:59;3.90;;;1.57;;
4909;SDS011;2470;49.868;8.660;2022-12-22T04:48:25;4.60;;;1.50;;
4909;SDS011;2470;49.868;8.660;2022-12-22T04:50:53;3.47;;;1.13;;
4909;SDS011;2470;49.868;8.660;2022-12-22T04:53:20;2.00;;;1.60;;
4909;SDS011;2470;49.868;8.660;2022-12-22T04:55:47;5.53;;;1.87;;
4909;SDS011;2470;49.868;8.660;2022-12-22T04:58:14;2.77;;;2.00;;
4909;SDS011;2470;49.868;8.660;2022-12-22T05:00:40;9.17;;;1.80;;
4909;SDS011;2470;49.868;8.660;2022-12-22T05:03:06;3.43;;;1.63;;
4909;SDS011;2470;49.868;8.660;2022-12-22T05:05:32;5.33;;;1.53;;
4909;SDS011;2470;49.868;8.660;2022-12-22T05:07:58;1.90;;;1.70;;
4909;SDS011;2470;49.868;8.660;2022-12-22T05:10:23;2.00;;;1.80;;
4909;SDS011;2470;49.868;8.660;2022-12-22T05:12:49;3.97;;;1.87;;
4909;SDS011;2470;49.868;8.660;2022-12-22T05:15:21;1.70;;;1.60;;
4909;SDS011;2470;49.868;8.660;2022-12-22T05:17:55;1.57;;;1.40;;
4909;SDS011;2470;49.868;8.660;2022-12-22T05:20:21;3.70;;;1.60;;
4909;SDS011;2470;49.868;8.660;2022-12-22T05:22:47;10.23;;;2.13;;
4909;SDS011;2470;49.868;8.660;2022-12-22T05:25:13;4.40;;;1.90;;
4909;SDS011;2470;49.868;8.660;2022-12-22T05:27:48;4.23;;;1.70;;
4909;SDS011;2470;49.868;8.660;2022-12-22T05:30:15;1.47;;;1.37;;
4909;SDS011;2470;49.868;8.660;2022-12-22T05:32:41;1.13;;;1.03;;
4909;SDS011;2470;49.868;8.660;2022-12-22T05:35:07;3.37;;;1.80;;
4909;SDS011;2470;49.868;8.660;2022-12-22T05:37:33;1.50;;;1.40;;
4909;SDS011;2470;49.868;8.660;2022-12-22T05:39:59;1.97;;;1.60;;
4909;SDS011;2470;49.868;8.660;2022-12-22T05:42:24;2.67;;;1.33;;
4909;SDS011;2470;49.868;8.660;2022-12-22T05:47:39;1.90;;;1.47;;
4909;SDS011;2470;49.868;8.660;2022-12-22T05:50:05;1.53;;;1.33;;
4909;SDS011;2470;49.868;8.660;2022-12-22T05:52:31;1.60;;;1.50;;
4909;SDS011;2470;49.868;8.660;2022-12-22T05:54:57;1.63;;;1.53;;
4909;SDS011;2470;49.868;8.660;2022-12-22T05:57:22;1.40;;;1.30;;
4909;SDS011;2470;49.868;8.660;2022-12-22T05:59:48;1.93;;;1.80;;
4909;SDS011;2470;49.868;8.660;2022-12-22T06:02:13;1.40;;;1.30;;
4909;SDS011;2470;49.868;8.660;2022-12-22T06:04:39;1.47;;;1.37;;
4909;SDS011;2470;49.868;8.660;2022-12-22T06:07:05;17.27;;;1.80;;
4909;SDS011;2470;49.868;8.660;2022-12-22T06:09:30;4.03;;;1.97;;
4909;SDS011;2470;49.868;8.660;2022-12-22T06:11:56;2.20;;;1.70;;
4909;SDS011;2470;49.868;8.660;2022-12-22T06:14:21;3.13;;;1.73;;
4909;SDS011;2470;49.868;8.660;2022-12-22T06:16:47;2.23;;;1.37;;
4909;SDS011;2470;49.868;8.660;2022-12-22T06:19:12;4.13;;;1.40;;
4909;SDS011;2470;49.868;8.660;2022-12-22T06:21:38;1.90;;;1.43;;
4909;SDS011;2470;49.868;8.660;2022-12-22T06:24:03;1.40;;;1.20;;
4909;SDS011;2470;49.868;8.660;2022-12-22T06:26:29;1.57;;;1.47;;
4909;SDS011;2470;49.868;8.660;2022-12-22T06:28:55;3.33;;;1.57;;
4909;SDS011;2470;49.868;8.660;2022-12-22T06:31:22;3.07;;;1.70;;
4909;SDS011;2470;49.868;8.660;2022-12-22T06:33:48;1.70;;;1.20;;
4909;SDS011;2470;49.868;8.660;2022-12-22T06:36:13;1.60;;;1.50;;
4909;SDS011;2470;49.868;8.660;2022-12-22T06:38:39;3.70;;;1.70;;
4909;SDS011;2470;49.868;8.660;2022-12-22T06:41:04;1.70;;;1.60;;
4909;SDS011;2470;49.868;8.660;2022-12-22T06:43:30;1.90;;;1.40;;
4909;SDS011;2470;49.868;8.660;2022-12-22T06:45:55;2.23;;;1.70;;
4909;SDS011;2470;49.868;8.660;2022-12-22T06:48:21;5.27;;;1.47;;
4909;SDS011;2470;49.868;8.660;2022-12-22T06:50:46;1.33;;;1.23;;
4909;SDS011;2470;49.868;8.660;2022-12-22T06:53:12;1.00;;;1.00;;
4909;SDS011;2470;49.868;8.660;2022-12-22T06:55:38;2.30;;;1.30;;
4909;SDS011;2470;49.868;8.660;2022-12-22T06:58:04;1.47;;;1.30;;
4909;SDS011;2470;49.868;8.660;2022-12-22T07:00:29;2.80;;;2.60;;
4909;SDS011;2470;49.868;8.660;2022-12-22T07:02:55;11.73;;;1.87;;
4909;SDS011;2470;49.868;8.660;2022-12-22T07:05:21;1.23;;;1.13;;
4909;SDS011;2470;49.868;8.660;2022-12-22T07:07:50;1.70;;;1.60;;
4909;SDS011;2470;49.868;8.660;2022-12-22T07:10:16;2.30;;;1.50;;
4909;SDS011;2470;49.868;8.660;2022-12-22T07:12:42;3.03;;;1.60;;
4909;SDS011;2470;49.868;8.660;2022-12-22T07:15:08;2.70;;;1.53;;
4909;SDS011;2470;49.868;8.660;2022-12-22T07:17:34;6.63;;;1.80;;
4909;SDS011;2470;49.868;8.660;2022-12-22T07:19:59;2.93;;;2.23;;
4909;SDS011;2470;49.868;8.660;2022-12-22T07:22:25;1.73;;;1.47;;
4909;SDS011;2470;49.868;8.660;2022-12-22T07:24:50;2.00;;;1.80;;
4909;SDS011;2470;49.868;8.660;2022-12-22T07:27:16;1.60;;;0.87;;
4909;SDS011;2470;49.868;8.660;2022-12-22T07:29:41;3.40;;;1.43;;
4909;SDS011;2470;49.868;8.660;2022-12-22T07:32:07;1.20;;;1.10;;
4909;SDS011;2470;49.868;8.660;2022-12-22T07:34:33;6.47;;;1.43;;
4909;SDS011;2470;49.868;8.660;2022-12-22T07:36:58;1.50;;;1.30;;
4909;SDS011;2470;49.868;8.660;2022-12-22T07:39:24;1.57;;;1.20;;
4909;SDS011;2470;49.868;8.660;2022-12-22T07:41:49;3.33;;;1.90;;
4909;SDS011;2470;49.868;8.660;2022-12-22T07:44:33;2.17;;;1.50;;
4909;SDS011;2470;49.868;8.660;2022-12-22T07:46:59;3.87;;;1.73;;
4909;SDS011;2470;49.868;8.660;2022-12-22T07:49:24;2.37;;;1.70;;
4909;SDS011;2470;49.868;8.660;2022-12-22T07:52:08;2.50;;;1.50;;
4909;SDS011;2470;49.868;8.660;2022-12-22T07:54:34;3.37;;;1.30;;
4909;SDS011;2470;49.868;8.660;2022-12-22T07:57:00;4.10;;;1.33;;
4909;SDS011;2470;49.868;8.660;2022-12-22T07:59:26;2.00;;;1.40;;
4909;SDS011;2470;49.868;8.660;2022-12-22T08:01:51;1.30;;;1.20;;
4909;SDS011;2470;49.868;8.660;2022-12-22T08:04:17;3.73;;;1.43;;
4909;SDS011;2470;49.868;8.660;2022-12-22T08:06:42;8.80;;;2.20;;
4909;SDS011;2470;49.868;8.660;2022-12-22T08:09:08;1.30;;;1.20;;
4909;SDS011;2470;49.868;8.660;2022-12-22T08:11:37;2.33;;;1.03;;
4909;SDS011;2470;49.868;8.660;2022-12-22T08:14:02;3.50;;;1.70;;
4909;SDS011;2470;49.868;8.660;2022-12-22T08:16:28;4.50;;;1.53;;
4909;SDS011;2470;49.868;8.660;2022-12-22T08:18:53;1.93;;;1.33;;
4909;SDS011;2470;49.868;8.660;2022-12-22T08:21:19;1.70;;;1.23;;
4909;SDS011;2470;49.868;8.660;2022-12-22T08:23:44;2.10;;;1.30;;
4909;SDS011;2470;49.868;8.660;2022-12-22T08:26:11;0.80;;;0.80;;
4909;SDS011;2470;49.868;8.660;2022-12-22T08:31:21;2.90;;;1.53;;
4909;SDS011;2470;49.868;8.660;2022-12-22T08:33:51;1.13;;;1.00;;
4909;SDS011;2470;49.868;8.660;2022-12-22T08:36:18;2.03;;;1.63;;
4909;SDS011;2470;49.868;8.660;2022-12-22T08:38:44;5.80;;;1.30;;
4909;SDS011;2470;49.868;8.660;2022-12-22T08:41:11;3.47;;;1.10;;
4909;SDS011;2470;49.868;8.660;2022-12-22T08:43:39;2.40;;;1.27;;
4909;SDS011;2470;49.868;8.660;2022-12-22T08:46:05;2.13;;;1.00;;
4909;SDS011;2470;49.868;8.660;2022-12-22T08:48:30;3.00;;;1.17;;
4909;SDS011;2470;49.868;8.660;2022-12-22T08:50:56;1.20;;;1.10;;
4909;SDS011;2470;49.868;8.660;2022-12-22T08:53:22;1.57;;;1.20;;
4909;SDS011;2470;49.868;8.660;2022-12-22T08:55:53;2.20;;;1.33;;
4909;SDS011;2470;49.868;8.660;2022-12-22T08:58:20;4.43;;;1.30;;
4909;SDS011;2470;49.868;8.660;2022-12-22T09:00:46;3.13;;;2.83;;
4909;SDS011;2470;49.868;8.660;2022-12-22T09:03:12;4.23;;;2.07;;
4909;SDS011;2470;49.868;8.660;2022-12-22T09:05:38;2.93;;;1.30;;
4909;SDS011;2470;49.868;8.660;2022-12-22T09:08:04;4.13;;;1.50;;
4909;SDS011;2470;49.868;8.660;2022-12-22T09:10:30;4.73;;;1.70;;
4909;SDS011;2470;49.868;8.660;2022-12-22T09:12:56;2.10;;;1.40;;
4909;SDS011;2470;49.868;8.660;2022-12-22T09:15:22;11.53;;;2.10;;
4909;SDS011;2470;49.868;8.660;2022-12-22T09:17:47;1.87;;;1.30;;
4909;SDS011;2470;49.868;8.660;2022-12-22T09:20:13;3.27;;;1.17;;
4909;SDS011;2470;49.868;8.660;2022-12-22T09:22:39;1.93;;;1.57;;
4909;SDS011;2470;49.868;8.660;2022-12-22T09:25:04;4.43;;;1.20;;
4909;SDS011;2470;49.868;8.660;2022-12-22T09:27:30;2.00;;;1.40;;
4909;SDS011;2470;49.868;8.660;2022-12-22T09:29:56;2.50;;;1.10;;
4909;SDS011;2470;49.868;8.660;2022-12-22T09:32:21;1.80;;;1.37;;
4909;SDS011;2470;49.868;8.660;2022-12-22T09:34:47;10.30;;;1.67;;
4909;SDS011;2470;49.868;8.660;2022-12-22T09:37:13;3.53;;;1.43;;
4909;SDS011;2470;49.868;8.660;2022-12-22T09:39:40;10.10;;;1.50;;
4909;SDS011;2470;49.868;8.660;2022-12-22T09:42:09;2.90;;;1.13;;
4909;SDS011;2470;49.868;8.660;2022-12-22T09:44:42;4.70;;;1.57;;
4909;SDS011;2470;49.868;8.660;2022-12-22T09:49:55;1.80;;;1.20;;
4909;SDS011;2470;49.868;8.660;2022-12-22T09:52:45;1.27;;;1.10;;
4909;SDS011;2470;49.868;8.660;2022-12-22T09:55:13;4.33;;;1.67;;
4909;SDS011;2470;49.868;8.660;2022-12-22T09:57:48;3.20;;;1.13;;
4909;SDS011;2470;49.868;8.660;2022-12-22T10:00:16;1.50;;;1.40;;
4909;SDS011;2470;49.868;8.660;2022-12-22T10:02:54;8.80;;;1.87;;
4909;SDS011;2470;49.868;8.660;2022-12-22T10:08:07;2.97;;;1.13;;
4909;SDS011;2470;49.868;8.660;2022-12-22T10:10:40;2.60;;;1.50;;
4909;SDS011;2470;49.868;8.660;2022-12-22T10:13:06;1.23;;;1.00;;
4909;SDS011;2470;49.868;8.660;2022-12-22T10:15:41;4.53;;;1.37;;
4909;SDS011;2470;49.868;8.660;2022-12-22T10:18:09;1.73;;;1.20;;
4909;SDS011;2470;49.868;8.660;2022-12-22T10:20:39;2.40;;;0.90;;
4909;SDS011;2470;49.868;8.660;2022-12-22T10:23:13;6.27;;;1.90;;
4909;SDS011;2470;49.868;8.660;2022-12-22T10:28:21;1.43;;;1.00;;
4909;SDS011;2470;49.868;8.660;2022-12-22T10:31:10;1.63;;;1.10;;
4909;SDS011;2470;49.868;8.660;2022-12-22T10:33:57;0.80;;;0.80;;
4909;SDS011;2470;49.868;8.660;2022-12-22T10:36:35;2.30;;;0.97;;
4909;SDS011;2470;49.868;8.660;2022-12-22T10:39:09;2.73;;;1.10;;
4909;SDS011;2470;49.868;8.660;2022-12-22T10:41:39;3.63;;;1.43;;
4909;SDS011;2470;49.868;8.660;2022-12-22T10:44:08;4.40;;;1.77;;
4909;SDS011;2470;49.868;8.660;2022-12-22T10:46:43;2.23;;;1.10;;
4909;SDS011;2470;49.868;8.660;2022-12-22T10:49:14;10.40;;;1.50;;
4909;SDS011;2470;49.868;8.660;2022-12-22T10:51:51;1.30;;;1.00;;
4909;SDS011;2470;49.868;8.660;2022-12-22T10:54:37;0.87;;;0.87;;
4909;SDS011;2470;49.868;8.660;2022-12-22T11:02:33;1.30;;;1.03;;
4909;SDS011;2470;49.868;8.660;2022-12-22T11:05:03;3.63;;;1.10;;
4909;SDS011;2470;49.868;8.660;2022-12-22T11:07:39;0.70;;;0.70;;
4909;SDS011;2470;49.868;8.660;2022-12-22T11:10:14;2.97;;;1.00;;
4909;SDS011;2470;49.868;8.660;2022-12-22T11:24:34;1.47;;;0.90;;
4909;SDS011;2470;49.868;8.660;2022-12-22T11:27:22;1.10;;;0.80;;
4909;SDS011;2470;49.868;8.660;2022-12-22T11:30:00;2.97;;;0.90;;
4909;SDS011;2470;49.868;8.660;2022-12-22T11:32:43;1.00;;;0.80;;
4909;SDS011;2470;49.868;8.660;2022-12-22T11:51:14;1.20;;;0.87;;
4909;SDS011;2470;49.868;8.660;2022-12-22T11:54:06;0.70;;;0.70;;
4909;SDS011;2470;49.868;8.660;2022-12-22T11:57:01;0.77;;;0.77;;
4909;SDS011;2470;49.868;8.660;2022-12-22T12:02:33;1.10;;;1.00;;
4909;SDS011;2470;49.868;8.660;2022-12-22T12:11:10;1.10;;;0.70;;
4909;SDS011;2470;49.868;8.660;2022-12-22T12:14:42;1.33;;;0.80;;
4909;SDS011;2470;49.868;8.660;2022-12-22T12:30:25;0.73;;;0.73;;
4909;SDS011;2470;49.868;8.660;2022-12-22T12:33:02;0.70;;;0.70;;
4909;SDS011;2470;49.868;8.660;2022-12-22T12:35:49;4.10;;;0.80;;
4909;SDS011;2470;49.868;8.660;2022-12-22T12:38:30;1.23;;;0.90;;
4909;SDS011;2470;49.868;8.660;2022-12-22T12:43:53;1.10;;;1.00;;
4909;SDS011;2470;49.868;8.660;2022-12-22T12:49:04;4.63;;;1.30;;
4909;SDS011;2470;49.868;8.660;2022-12-22T12:51:49;2.50;;;1.13;;
4909;SDS011;2470;49.868;8.660;2022-12-22T12:54:57;1.13;;;0.90;;
4909;SDS011;2470;49.868;8.660;2022-12-22T13:02:55;1.67;;;0.90;;
4909;SDS011;2470;49.868;8.660;2022-12-22T13:05:32;1.13;;;1.00;;
4909;SDS011;2470;49.868;8.660;2022-12-22T13:08:13;0.80;;;0.80;;
4909;SDS011;2470;49.868;8.660;2022-12-22T13:15:46;1.07;;;0.97;;
4909;SDS011;2470;49.868;8.660;2022-12-22T13:26:31;0.80;;;0.80;;
4909;SDS011;2470;49.868;8.660;2022-12-22T13:28:58;0.80;;;0.80;;
4909;SDS011;2470;49.868;8.660;2022-12-22T13:31:44;0.80;;;0.80;;
4909;SDS011;2470;49.868;8.660;2022-12-22T13:34:23;0.87;;;0.80;;
4909;SDS011;2470;49.868;8.660;2022-12-22T13:37:14;0.97;;;0.90;;
4909;SDS011;2470;49.868;8.660;2022-12-22T13:45:27;0.70;;;0.70;;
4909;SDS011;2470;49.868;8.660;2022-12-22T13:48:03;1.67;;;0.80;;
4909;SDS011;2470;49.868;8.660;2022-12-22T13:50:42;1.13;;;1.03;;
4909;SDS011;2470;49.868;8.660;2022-12-22T13:53:14;1.70;;;1.07;;
4909;SDS011;2470;49.868;8.660;2022-12-22T13:55:45;0.90;;;0.80;;
4909;SDS011;2470;49.868;8.660;2022-12-22T13:58:25;0.83;;;0.80;;
4909;SDS011;2470;49.868;8.660;2022-12-22T14:01:11;0.80;;;0.80;;
4909;SDS011;2470;49.868;8.660;2022-12-22T14:03:47;1.03;;;0.93;;
4909;SDS011;2470;49.868;8.660;2022-12-22T14:06:33;1.10;;;1.00;;
4909;SDS011;2470;49.868;8.660;2022-12-22T14:09:10;0.93;;;0.93;;
4909;SDS011;2470;49.868;8.660;2022-12-22T14:11:45;0.77;;;0.77;;
4909;SDS011;2470;49.868;8.660;2022-12-22T14:14:15;0.80;;;0.80;;
4909;SDS011;2470;49.868;8.660;2022-12-22T14:16:47;0.80;;;0.80;;
4909;SDS011;2470;49.868;8.660;2022-12-22T14:19:15;0.70;;;0.70;;
4909;SDS011;2470;49.868;8.660;2022-12-22T14:21:42;1.10;;;1.00;;
4909;SDS011;2470;49.868;8.660;2022-12-22T14:24:15;1.17;;;0.90;;
4909;SDS011;2470;49.868;8.660;2022-12-22T14:26:45;1.00;;;0.90;;
4909;SDS011;2470;49.868;8.660;2022-12-22T14:29:12;0.90;;;0.90;;
4909;SDS011;2470;49.868;8.660;2022-12-22T14:31:57;1.00;;;0.90;;
4909;SDS011;2470;49.868;8.660;2022-12-22T14:34:29;1.40;;;1.30;;
4909;SDS011;2470;49.868;8.660;2022-12-22T14:36:56;0.80;;;0.80;;
4909;SDS011;2470;49.868;8.660;2022-12-22T14:39:24;1.67;;;0.90;;
4909;SDS011;2470;49.868;8.660;2022-12-22T14:41:56;2.00;;;1.00;;
4909;SDS011;2470;49.868;8.660;2022-12-22T14:49:43;0.90;;;0.90;;
4909;SDS011;2470;49.868;8.660;2022-12-22T14:52:14;0.80;;;0.80;;
4909;SDS011;2470;49.868;8.660;2022-12-22T14:54:44;3.53;;;1.07;;
4909;SDS011;2470;49.868;8.660;2022-12-22T14:57:13;3.53;;;1.10;;
4909;SDS011;2470;49.868;8.660;2022-12-22T14:59:56;1.13;;;0.90;;
4909;SDS011;2470;49.868;8.660;2022-12-22T15:02:29;1.00;;;0.90;;
4909;SDS011;2470;49.868;8.660;2022-12-22T15:05:07;0.80;;;0.80;;
4909;SDS011;2470;49.868;8.660;2022-12-22T15:07:42;1.23;;;0.90;;
4909;SDS011;2470;49.868;8.660;2022-12-22T15:10:12;0.83;;;0.83;;
4909;SDS011;2470;49.868;8.660;2022-12-22T15:12:38;1.23;;;1.13;;
4909;SDS011;2470;49.868;8.660;2022-12-22T15:15:04;1.67;;;1.57;;
4909;SDS011;2470;49.868;8.660;2022-12-22T15:17:42;1.57;;;1.10;;
4909;SDS011;2470;49.868;8.660;2022-12-22T15:20:12;1.03;;;0.97;;
4909;SDS011;2470;49.868;8.660;2022-12-22T15:22:41;1.07;;;0.97;;
4909;SDS011;2470;49.868;8.660;2022-12-22T15:25:11;2.03;;;1.90;;
4909;SDS011;2470;49.868;8.660;2022-12-22T15:27:41;0.90;;;0.90;;
4909;SDS011;2470;49.868;8.660;2022-12-22T15:30:08;1.00;;;0.93;;
4909;SDS011;2470;49.868;8.660;2022-12-22T15:32:34;0.80;;;0.80;;
4909;SDS011;2470;49.868;8.660;2022-12-22T15:35:00;1.17;;;1.03;;
4909;SDS011;2470;49.868;8.660;2022-12-22T15:37:27;1.20;;;0.90;;
4909;SDS011;2470;49.868;8.660;2022-12-22T15:39:53;1.20;;;1.10;;
4909;SDS011;2470;49.868;8.660;2022-12-22T15:42:19;1.27;;;1.00;;
4909;SDS011;2470;49.868;8.660;2022-12-22T15:44:44;0.90;;;0.90;;
4909;SDS011;2470;49.868;8.660;2022-12-22T15:47:10;1.00;;;0.97;;
4909;SDS011;2470;49.868;8.660;2022-12-22T15:49:36;3.70;;;1.33;;
4909;SDS011;2470;49.868;8.660;2022-12-22T15:52:02;1.30;;;1.00;;
4909;SDS011;2470;49.868;8.660;2022-12-22T15:54:30;1.20;;;1.10;;
4909;SDS011;2470;49.868;8.660;2022-12-22T15:56:59;1.17;;;1.07;;
4909;SDS011;2470;49.868;8.660;2022-12-22T15:59:26;2.70;;;0.80;;
4909;SDS011;2470;49.868;8.660;2022-12-22T16:01:53;1.10;;;0.90;;
4909;SDS011;2470;49.868;8.660;2022-12-22T16:04:20;1.20;;;1.00;;
4909;SDS011;2470;49.868;8.660;2022-12-22T16:06:47;0.87;;;0.87;;
4909;SDS011;2470;49.868;8.660;2022-12-22T16:09:19;1.33;;;1.20;;
4909;SDS011;2470;49.868;8.660;2022-12-22T16:11:48;1.23;;;0.93;;
4909;SDS011;2470;49.868;8.660;2022-12-22T16:14:14;1.80;;;1.20;;
4909;SDS011;2470;49.868;8.660;2022-12-22T16:16:42;2.50;;;1.43;;
4909;SDS011;2470;49.868;8.660;2022-12-22T16:19:12;1.33;;;1.13;;
4909;SDS011;2470;49.868;8.660;2022-12-22T16:21:46;3.97;;;1.57;;
4909;SDS011;2470;49.868;8.660;2022-12-22T16:24:19;1.60;;;1.50;;
4909;SDS011;2470;49.868;8.660;2022-12-22T16:26:45;1.57;;;1.27;;
4909;SDS011;2470;49.868;8.660;2022-12-22T16:29:12;1.37;;;1.27;;
4909;SDS011;2470;49.868;8.660;2022-12-22T16:31:39;1.20;;;1.10;;
4909;SDS011;2470;49.868;8.660;2022-12-22T16:34:05;1.50;;;1.33;;
4909;SDS011;2470;49.868;8.660;2022-12-22T16:36:33;1.83;;;1.40;;
4909;SDS011;2470;49.868;8.660;2022-12-22T16:38:58;2.20;;;1.13;;
4909;SDS011;2470;49.868;8.660;2022-12-22T16:41:24;1.80;;;1.40;;
4909;SDS011;2470;49.868;8.660;2022-12-22T16:43:50;2.53;;;2.00;;
4909;SDS011;2470;49.868;8.660;2022-12-22T16:46:19;2.03;;;1.30;;
4909;SDS011;2470;49.868;8.660;2022-12-22T16:48:53;4.43;;;1.97;;
4909;SDS011;2470;49.868;8.660;2022-12-22T16:51:25;1.73;;;1.63;;
4909;SDS011;2470;49.868;8.660;2022-12-22T16:53:53;3.70;;;2.10;;
4909;SDS011;2470;49.868;8.660;2022-12-22T16:56:20;2.20;;;1.40;;
4909;SDS011;2470;49.868;8.660;2022-12-22T16:58:48;2.30;;;1.40;;
4909;SDS011;2470;49.868;8.660;2022-12-22T17:01:18;6.73;;;1.67;;
4909;SDS011;2470;49.868;8.660;2022-12-22T17:03:55;2.97;;;1.57;;
4909;SDS011;2470;49.868;8.660;2022-12-22T17:06:24;1.73;;;1.53;;
4909;SDS011;2470;49.868;8.660;2022-12-22T17:08:50;1.57;;;1.47;;
4909;SDS011;2470;49.868;8.660;2022-12-22T17:11:17;1.93;;;1.73;;
4909;SDS011;2470;49.868;8.660;2022-12-22T17:13:47;2.13;;;1.70;;
4909;SDS011;2470;49.868;8.660;2022-12-22T17:16:18;1.60;;;1.20;;
4909;SDS011;2470;49.868;8.660;2022-12-22T17:18:47;3.27;;;2.17;;
4909;SDS011;2470;49.868;8.660;2022-12-22T17:21:13;11.23;;;3.97;;
4909;SDS011;2470;49.868;8.660;2022-12-22T17:23:44;2.80;;;2.13;;
4909;SDS011;2470;49.868;8.660;2022-12-22T17:26:18;5.67;;;2.53;;
4909;SDS011;2470;49.868;8.660;2022-12-22T17:28:46;2.70;;;1.97;;
4909;SDS011;2470;49.868;8.660;2022-12-22T17:31:17;10.83;;;3.17;;
4909;SDS011;2470;49.868;8.660;2022-12-22T17:33:44;4.93;;;1.90;;
4909;SDS011;2470;49.868;8.660;2022-12-22T17:36:18;2.80;;;2.60;;
4909;SDS011;2470;49.868;8.660;2022-12-22T17:38:47;3.60;;;1.60;;
4909;SDS011;2470;49.868;8.660;2022-12-22T17:41:14;3.17;;;1.70;;
4909;SDS011;2470;49.868;8.660;2022-12-22T17:43:41;1.37;;;1.20;;